Shtandart — UAEM — position and weather

sailwx.info

Track history (hours):
 
Tides and Currents Weather Stations Pressure Air Temp Water Temp Dewpoint Dewpoint Depression Visibility Wind Speed Wind Dir Waves Ship Positions

Shtandart

Re-creation of early 1700's Russian naval frigate.

Last reported at 2018-May-23 08:37 UTC. Time now 2018-May-23 10:45 UTC.
Position N 49°11' W 000°21'.

Length 26 m; draft 3.3 m.

Type: Sailing vessel. MMSI: 273452840.

Date/timePositionNaut miles runAvg speedWind from/ knotsBaromVisibWave heightAir tempDewpointWater temp
2018-May-23 08:37N 49°11' W 000°21'0 0.0
2018-May-23 08:22N 49°11' W 000°21'0 0.0
2018-May-23 07:55N 49°11' W 000°21'1 2.4
2018-May-23 07:31N 49°11' W 000°20'3 5.1
2018-May-23 07:01N 49°13' W 000°18'3 5.4
2018-May-23 06:30N 49°16' W 000°15'1 2.5
2018-May-23 06:01N 49°17' W 000°15'0 0.0
2018-May-23 05:31N 49°17' W 000°15'0 0.0
2018-May-23 05:00N 49°17' W 000°15'0 0.0
2018-May-23 04:31N 49°17' W 000°15'1 1.6
2018-May-23 04:01N 49°18' W 000°15'2 4.8
2018-May-23 03:31N 49°20' W 000°14'3 6.1
2018-May-23 03:01N 49°23' W 000°13'3 5.4
2018-May-23 02:30N 49°25' W 000°12'2 4.2
2018-May-23 02:01N 49°28' W 000°11'2 4.6
2018-May-23 01:31N 49°30' W 000°10'2 5.0
2018-May-23 01:01N 49°32' W 000°07'3 5.5
2018-May-23 00:30N 49°34' W 000°06'3 5.9
2018-May-23 00:01N 49°37' W 000°06'3 5.7
2018-May-22 23:31N 49°40' W 000°04'3 5.5
2018-May-22 23:01N 49°43' W 000°03'2 4.3
2018-May-22 22:30N 49°44' W 000°01'2 3.9
2018-May-22 22:01N 49°45' E 000°01'2 3.8
2018-May-22 21:29N 49°47' E 000°04'2 4.1
2018-May-22 21:01N 49°48' E 000°06'2 3.4
2018-May-22 20:31N 49°48' E 000°09'1 2.9
2018-May-22 20:00N 49°49' E 000°11'1 2.6
2018-May-22 19:30N 49°49' E 000°12'1 2.6
2018-May-22 19:00N 49°50' E 000°14'2 3.1
2018-May-22 18:30N 49°51' E 000°16'1 2.5
2018-May-22 17:54N 49°52' E 000°18'3 2.0
2018-May-22 16:35N 49°54' E 000°19'0 2.8
2018-May-22 16:29N 49°55' E 000°19'4 2.2
2018-May-22 14:41N 49°58' E 000°17'0 1.6
2018-May-22 14:30N 49°59' E 000°17'1 1.3
2018-May-22 14:01N 49°59' E 000°16'1 2.8
2018-May-22 13:30N 49°60' E 000°17'66 3.9
2018-May-21 20:29N 50°47' E 001°31'2 5.1
2018-May-21 20:00N 50°49' E 001°32'2 4.5
2018-May-21 19:31N 50°51' E 001°33'2 4.1
2018-May-21 18:58N 50°53' E 001°34'2 4.5
2018-May-21 18:30N 50°55' E 001°37'3 5.5
2018-May-21 18:00N 50°57' E 001°40'2 5.0
2018-May-21 17:31N 50°58' E 001°43'3 5.2
2018-May-21 17:01N 50°58' E 001°47'2 4.6
2018-May-21 16:30N 50°58' E 001°51'0 0.6
2018-May-21 15:43N 50°58' E 001°52'0 0.0
2018-May-21 08:16N 50°58' E 001°52'0 0.0
2018-May-21 07:55N 50°58' E 001°52'0 0.0
2018-May-21 06:25N 50°58' E 001°52'0 0.0
2018-May-20 19:58N 50°58' E 001°52'0 0.0
2018-May-19 16:40N 50°58' E 001°52'0 0.0
2018-May-19 16:10N 50°58' E 001°52'0 0.0
2018-May-19 15:58N 50°58' E 001°52'0 0.2
2018-May-19 15:18N 50°58' E 001°52'0 0.1
2018-May-19 14:59N 50°58' E 001°52'  
2018-May-16 11:28N 50°58' E 001°52'2 3.2
2018-May-16 10:48N 50°58' E 001°48'6 4.8
2018-May-16 09:36N 50°59' E 001°39'0 4.2
2018-May-16 09:30N 50°59' E 001°40'2 4.6
2018-May-16 09:00N 50°60' E 001°43'3 5.9
2018-May-16 08:30N 51°00' E 001°48'3 5.8
2018-May-16 08:00N 51°01' E 001°52'3 6.2
2018-May-16 07:29N 51°02' E 001°57'3 6.1
2018-May-16 06:58N 51°03' E 002°02'3 6.0
2018-May-16 06:30N 51°03' E 002°06'3 5.4
2018-May-16 05:58N 51°04' E 002°11'3 5.4
2018-May-16 05:30N 51°05' E 002°14'3 5.0
2018-May-16 05:00N 51°05' E 002°18'3 5.0
2018-May-16 04:27N 51°06' E 002°22'3 5.4
2018-May-16 03:52N 51°08' E 002°27'2 4.6
2018-May-16 03:29N 51°09' E 002°29'2 4.4
2018-May-16 03:00N 51°11' E 002°31'2 4.1
2018-May-16 02:30N 51°12' E 002°33'2 3.8
2018-May-16 02:00N 51°13' E 002°36'2 3.6
2018-May-16 01:30N 51°14' E 002°38'1 2.1
2018-May-16 01:00N 51°15' E 002°36'2 4.1
2018-May-16 00:30N 51°14' E 002°33'2 4.1
2018-May-16 00:00N 51°14' E 002°30'2 4.2
2018-May-15 23:30N 51°14' E 002°27'3 5.3
2018-May-15 23:00N 51°15' E 002°23'2 4.8
2018-May-15 22:30N 51°15' E 002°19'2 4.2
2018-May-15 22:00N 51°16' E 002°16'2 3.6
2018-May-15 21:30N 51°17' E 002°14'2 4.3
2018-May-15 21:01N 51°19' E 002°12'2 4.4
2018-May-15 20:30N 51°20' E 002°15'3 5.4
2018-May-15 20:00N 51°21' E 002°19'3 5.8
2018-May-15 19:30N 51°22' E 002°23'3 5.6
2018-May-15 19:00N 51°23' E 002°27'3 5.9
2018-May-15 18:30N 51°23' E 002°32'3 5.3
2018-May-15 18:00N 51°23' E 002°36'2 3.8
2018-May-15 17:30N 51°23' E 002°39'2 3.5
2018-May-15 17:00N 51°24' E 002°42'1 3.0
2018-May-15 16:30N 51°24' E 002°45'1 2.5
2018-May-15 16:00N 51°24' E 002°47'1 2.2
2018-May-15 15:30N 51°24' E 002°48'1 2.0
2018-May-15 14:54N 51°24' E 002°50'1 1.3
2018-May-15 14:29N 51°24' E 002°51'2 3.5
2018-May-15 14:00N 51°22' E 002°52'3 5.2
2018-May-15 13:30N 51°20' E 002°52'3 5.6
2018-May-15 13:00N 51°17' E 002°53'3 5.2
2018-May-15 12:30N 51°15' E 002°55'1 1.8
2018-May-15 12:00N 51°14' E 002°55'0 0.1
2018-May-15 11:30N 51°14' E 002°55'0 0.0
2018-May-15 11:00N 51°14' E 002°55'0 0.0
2018-May-15 10:27N 51°14' E 002°55'0 0.0
2018-May-15 10:00N 51°14' E 002°55'0 0.0
2018-May-15 09:30N 51°14' E 002°55'0 0.0
2018-May-15 09:00N 51°14' E 002°55'0 0.0
2018-May-15 08:30N 51°14' E 002°55'0 0.0
2018-May-15 08:00N 51°14' E 002°55'0 0.0
2018-May-15 07:30N 51°14' E 002°55'0 0.0
2018-May-15 07:00N 51°14' E 002°55'0 0.0
2018-May-15 06:30N 51°14' E 002°55'0 0.0
2018-May-15 06:00N 51°14' E 002°55'0 0.0
2018-May-15 05:30N 51°14' E 002°55'0 0.0
2018-May-15 05:00N 51°14' E 002°55'0 0.0
2018-May-15 04:30N 51°14' E 002°55'0 0.0
2018-May-15 04:00N 51°14' E 002°55'0 0.0
2018-May-15 03:30N 51°14' E 002°55'0 0.0
2018-May-15 03:00N 51°14' E 002°55'0 0.0
2018-May-15 02:30N 51°14' E 002°55'0 0.0
2018-May-15 02:00N 51°14' E 002°55'0 0.0
2018-May-15 01:30N 51°14' E 002°55'0 0.0
2018-May-15 01:00N 51°14' E 002°55'0 0.0
2018-May-15 00:30N 51°14' E 002°55'0 0.0
2018-May-15 00:00N 51°14' E 002°55'0 0.0
2018-May-14 23:30N 51°14' E 002°55'0 0.0
2018-May-14 23:00N 51°14' E 002°55'0 0.0
2018-May-14 22:30N 51°14' E 002°55'0 0.0
2018-May-14 22:00N 51°14' E 002°55'0 0.0
2018-May-14 21:30N 51°14' E 002°55'0 0.0
2018-May-14 21:00N 51°14' E 002°55'0 0.0
2018-May-14 20:30N 51°14' E 002°55'0 0.0
2018-May-14 20:00N 51°14' E 002°55'0 0.0
2018-May-14 19:30N 51°14' E 002°55'0 0.0
2018-May-14 19:00N 51°14' E 002°55'0 0.0
2018-May-14 18:30N 51°14' E 002°55'0 0.0
2018-May-14 18:00N 51°14' E 002°55'0 0.0
2018-May-14 17:30N 51°14' E 002°55'0 0.0
2018-May-14 17:00N 51°14' E 002°55'0 0.0
2018-May-14 16:27N 51°14' E 002°55'0 0.0
2018-May-14 16:00N 51°14' E 002°55'0 0.0
2018-May-14 15:30N 51°14' E 002°55'0 0.0
2018-May-14 15:00N 51°14' E 002°55'0 0.0
2018-May-14 14:30N 51°14' E 002°55'0 0.0
2018-May-14 14:00N 51°14' E 002°55'0 0.0
2018-May-14 13:30N 51°14' E 002°55'0 0.0
2018-May-14 12:57N 51°14' E 002°55'0 0.0
2018-May-14 12:30N 51°14' E 002°55'0 0.0
2018-May-14 12:00N 51°14' E 002°55'0 0.0
2018-May-14 11:30N 51°14' E 002°55'0 0.0
2018-May-14 11:00N 51°14' E 002°55'0 0.0
2018-May-14 10:30N 51°14' E 002°55'0 0.0
2018-May-14 10:00N 51°14' E 002°55'0 0.0
2018-May-14 09:30N 51°14' E 002°55'0 0.0
2018-May-14 09:00N 51°14' E 002°55'0 0.0
2018-May-14 08:30N 51°14' E 002°55'0 0.0
2018-May-14 08:00N 51°14' E 002°55'0 0.0
2018-May-14 07:30N 51°14' E 002°55'0 0.0
2018-May-14 07:00N 51°14' E 002°55'0 0.0
2018-May-14 06:30N 51°14' E 002°55'0 0.0
2018-May-14 06:00N 51°14' E 002°55'0 0.0
2018-May-14 05:30N 51°14' E 002°55'0 0.0
2018-May-14 05:00N 51°14' E 002°55'0 0.0
2018-May-14 04:30N 51°14' E 002°55'0 0.0
2018-May-14 04:00N 51°14' E 002°55'0 0.0
2018-May-14 03:30N 51°14' E 002°55'0 0.0
2018-May-14 03:00N 51°14' E 002°55'0 0.0
2018-May-14 02:30N 51°14' E 002°55'0 0.0
2018-May-14 02:00N 51°14' E 002°55'0 0.0
2018-May-14 01:30N 51°14' E 002°55'0 0.0
2018-May-14 01:00N 51°14' E 002°55'0 0.0
2018-May-14 00:30N 51°14' E 002°55'0 0.0
2018-May-14 00:00N 51°14' E 002°55'0 0.0
2018-May-13 23:30N 51°14' E 002°55'0 0.0
2018-May-13 22:54N 51°14' E 002°55'0 0.0
2018-May-13 22:30N 51°14' E 002°55'0 0.0
2018-May-13 22:00N 51°14' E 002°55'0 0.0
2018-May-13 21:30N 51°14' E 002°55'0 0.0
2018-May-13 21:00N 51°14' E 002°55'0 0.0
2018-May-13 20:30N 51°14' E 002°55'0 0.0
2018-May-13 20:00N 51°14' E 002°55'0 0.0
2018-May-13 19:30N 51°14' E 002°55'0 0.0
2018-May-13 19:00N 51°14' E 002°55'0 0.0
2018-May-13 18:30N 51°14' E 002°55'0 0.0
2018-May-13 18:00N 51°14' E 002°55'0 0.0
2018-May-13 17:30N 51°14' E 002°55'0 0.0
2018-May-13 17:00N 51°14' E 002°55'0 0.0
2018-May-13 16:30N 51°14' E 002°55'0 0.0
2018-May-13 16:00N 51°14' E 002°55'0 0.0
2018-May-13 15:30N 51°14' E 002°55'0 0.0
2018-May-13 15:00N 51°14' E 002°55'0 0.0
2018-May-13 14:30N 51°14' E 002°55'0 0.0
2018-May-13 14:00N 51°14' E 002°55'0 0.0
2018-May-13 13:30N 51°14' E 002°55'0 0.0
2018-May-13 13:00N 51°14' E 002°55'0 0.0
2018-May-13 12:30N 51°14' E 002°55'0 0.0
2018-May-13 12:00N 51°14' E 002°55'0 0.0
2018-May-13 11:30N 51°14' E 002°55'0 0.0
2018-May-13 11:00N 51°14' E 002°55'0 0.0
2018-May-13 10:30N 51°14' E 002°55'0 0.0
2018-May-13 09:57N 51°14' E 002°55'0 0.0
2018-May-13 09:30N 51°14' E 002°55'0 0.0
2018-May-13 09:00N 51°14' E 002°55'  
Track history (hours):
 
Tides and Currents Weather Stations Pressure Air Temp Water Temp Dewpoint Dewpoint Depression Visibility Wind Speed Wind Dir Waves Ship Positions

Shtandart

Re-creation of early 1700's Russian naval frigate.

Last reported at 2018-May-23 08:37 UTC. Time now 2018-May-23 10:45 UTC.
Position N 49°11' W 000°21'.

Length 26 m; draft 3.3 m.

Type: Sailing vessel. MMSI: 273452840.

Date/timePositionNaut miles runAvg speedWind from/ knotsBaromVisibWave heightAir tempDewpointWater temp
2018-May-23 08:37N 49°11' W 000°21'0 0.0
2018-May-23 08:22N 49°11' W 000°21'0 0.0
2018-May-23 07:55N 49°11' W 000°21'1 2.4
2018-May-23 07:31N 49°11' W 000°20'3 5.1
2018-May-23 07:01N 49°13' W 000°18'3 5.4
2018-May-23 06:30N 49°16' W 000°15'1 2.5
2018-May-23 06:01N 49°17' W 000°15'0 0.0
2018-May-23 05:31N 49°17' W 000°15'0 0.0
2018-May-23 05:00N 49°17' W 000°15'0 0.0
2018-May-23 04:31N 49°17' W 000°15'1 1.6
2018-May-23 04:01N 49°18' W 000°15'2 4.8
2018-May-23 03:31N 49°20' W 000°14'3 6.1
2018-May-23 03:01N 49°23' W 000°13'3 5.4
2018-May-23 02:30N 49°25' W 000°12'2 4.2
2018-May-23 02:01N 49°28' W 000°11'2 4.6
2018-May-23 01:31N 49°30' W 000°10'2 5.0
2018-May-23 01:01N 49°32' W 000°07'3 5.5
2018-May-23 00:30N 49°34' W 000°06'3 5.9
2018-May-23 00:01N 49°37' W 000°06'3 5.7
2018-May-22 23:31N 49°40' W 000°04'3 5.5
2018-May-22 23:01N 49°43' W 000°03'2 4.3
2018-May-22 22:30N 49°44' W 000°01'2 3.9
2018-May-22 22:01N 49°45' E 000°01'2 3.8
2018-May-22 21:29N 49°47' E 000°04'2 4.1
2018-May-22 21:01N 49°48' E 000°06'2 3.4
2018-May-22 20:31N 49°48' E 000°09'1 2.9
2018-May-22 20:00N 49°49' E 000°11'1 2.6
2018-May-22 19:30N 49°49' E 000°12'1 2.6
2018-May-22 19:00N 49°50' E 000°14'2 3.1
2018-May-22 18:30N 49°51' E 000°16'1 2.5
2018-May-22 17:54N 49°52' E 000°18'3 2.0
2018-May-22 16:35N 49°54' E 000°19'0 2.8
2018-May-22 16:29N 49°55' E 000°19'4 2.2
2018-May-22 14:41N 49°58' E 000°17'0 1.6
2018-May-22 14:30N 49°59' E 000°17'1 1.3
2018-May-22 14:01N 49°59' E 000°16'1 2.8
2018-May-22 13:30N 49°60' E 000°17'66 3.9
2018-May-21 20:29N 50°47' E 001°31'2 5.1
2018-May-21 20:00N 50°49' E 001°32'2 4.5
2018-May-21 19:31N 50°51' E 001°33'2 4.1
2018-May-21 18:58N 50°53' E 001°34'2 4.5
2018-May-21 18:30N 50°55' E 001°37'3 5.5
2018-May-21 18:00N 50°57' E 001°40'2 5.0
2018-May-21 17:31N 50°58' E 001°43'3 5.2
2018-May-21 17:01N 50°58' E 001°47'2 4.6
2018-May-21 16:30N 50°58' E 001°51'0 0.6
2018-May-21 15:43N 50°58' E 001°52'0 0.0
2018-May-21 08:16N 50°58' E 001°52'0 0.0
2018-May-21 07:55N 50°58' E 001°52'0 0.0
2018-May-21 06:25N 50°58' E 001°52'0 0.0
2018-May-20 19:58N 50°58' E 001°52'0 0.0
2018-May-19 16:40N 50°58' E 001°52'0 0.0
2018-May-19 16:10N 50°58' E 001°52'0 0.0
2018-May-19 15:58N 50°58' E 001°52'0 0.2
2018-May-19 15:18N 50°58' E 001°52'0 0.1
2018-May-19 14:59N 50°58' E 001°52'  
2018-May-16 11:28N 50°58' E 001°52'2 3.2
2018-May-16 10:48N 50°58' E 001°48'6 4.8
2018-May-16 09:36N 50°59' E 001°39'0 4.2
2018-May-16 09:30N 50°59' E 001°40'2 4.6
2018-May-16 09:00N 50°60' E 001°43'3 5.9
2018-May-16 08:30N 51°00' E 001°48'3 5.8
2018-May-16 08:00N 51°01' E 001°52'3 6.2
2018-May-16 07:29N 51°02' E 001°57'3 6.1
2018-May-16 06:58N 51°03' E 002°02'3 6.0
2018-May-16 06:30N 51°03' E 002°06'3 5.4
2018-May-16 05:58N 51°04' E 002°11'3 5.4
2018-May-16 05:30N 51°05' E 002°14'3 5.0
2018-May-16 05:00N 51°05' E 002°18'3 5.0
2018-May-16 04:27N 51°06' E 002°22'3 5.4
2018-May-16 03:52N 51°08' E 002°27'2 4.6
2018-May-16 03:29N 51°09' E 002°29'2 4.4
2018-May-16 03:00N 51°11' E 002°31'2 4.1
2018-May-16 02:30N 51°12' E 002°33'2 3.8
2018-May-16 02:00N 51°13' E 002°36'2 3.6
2018-May-16 01:30N 51°14' E 002°38'1 2.1
2018-May-16 01:00N 51°15' E 002°36'2 4.1
2018-May-16 00:30N 51°14' E 002°33'2 4.1
2018-May-16 00:00N 51°14' E 002°30'2 4.2
2018-May-15 23:30N 51°14' E 002°27'3 5.3
2018-May-15 23:00N 51°15' E 002°23'2 4.8
2018-May-15 22:30N 51°15' E 002°19'2 4.2
2018-May-15 22:00N 51°16' E 002°16'2 3.6
2018-May-15 21:30N 51°17' E 002°14'2 4.3
2018-May-15 21:01N 51°19' E 002°12'2 4.4
2018-May-15 20:30N 51°20' E 002°15'3 5.4
2018-May-15 20:00N 51°21' E 002°19'3 5.8
2018-May-15 19:30N 51°22' E 002°23'3 5.6
2018-May-15 19:00N 51°23' E 002°27'3 5.9
2018-May-15 18:30N 51°23' E 002°32'3 5.3
2018-May-15 18:00N 51°23' E 002°36'2 3.8
2018-May-15 17:30N 51°23' E 002°39'2 3.5
2018-May-15 17:00N 51°24' E 002°42'1 3.0
2018-May-15 16:30N 51°24' E 002°45'1 2.5
2018-May-15 16:00N 51°24' E 002°47'1 2.2
2018-May-15 15:30N 51°24' E 002°48'1 2.0
2018-May-15 14:54N 51°24' E 002°50'1 1.3
2018-May-15 14:29N 51°24' E 002°51'2 3.5
2018-May-15 14:00N 51°22' E 002°52'3 5.2
2018-May-15 13:30N 51°20' E 002°52'3 5.6
2018-May-15 13:00N 51°17' E 002°53'3 5.2
2018-May-15 12:30N 51°15' E 002°55'1 1.8
2018-May-15 12:00N 51°14' E 002°55'0 0.1
2018-May-15 11:30N 51°14' E 002°55'0 0.0
2018-May-15 11:00N 51°14' E 002°55'0 0.0
2018-May-15 10:27N 51°14' E 002°55'0 0.0
2018-May-15 10:00N 51°14' E 002°55'0 0.0
2018-May-15 09:30N 51°14' E 002°55'0 0.0
2018-May-15 09:00N 51°14' E 002°55'0 0.0
2018-May-15 08:30N 51°14' E 002°55'0 0.0
2018-May-15 08:00N 51°14' E 002°55'0 0.0
2018-May-15 07:30N 51°14' E 002°55'0 0.0
2018-May-15 07:00N 51°14' E 002°55'0 0.0
2018-May-15 06:30N 51°14' E 002°55'0 0.0
2018-May-15 06:00N 51°14' E 002°55'0 0.0
2018-May-15 05:30N 51°14' E 002°55'0 0.0
2018-May-15 05:00N 51°14' E 002°55'0 0.0
2018-May-15 04:30N 51°14' E 002°55'0 0.0
2018-May-15 04:00N 51°14' E 002°55'0 0.0
2018-May-15 03:30N 51°14' E 002°55'0 0.0
2018-May-15 03:00N 51°14' E 002°55'0 0.0
2018-May-15 02:30N 51°14' E 002°55'0 0.0
2018-May-15 02:00N 51°14' E 002°55'0 0.0
2018-May-15 01:30N 51°14' E 002°55'0 0.0
2018-May-15 01:00N 51°14' E 002°55'0 0.0
2018-May-15 00:30N 51°14' E 002°55'0 0.0
2018-May-15 00:00N 51°14' E 002°55'0 0.0
2018-May-14 23:30N 51°14' E 002°55'0 0.0
2018-May-14 23:00N 51°14' E 002°55'0 0.0
2018-May-14 22:30N 51°14' E 002°55'0 0.0
2018-May-14 22:00N 51°14' E 002°55'0 0.0
2018-May-14 21:30N 51°14' E 002°55'0 0.0
2018-May-14 21:00N 51°14' E 002°55'0 0.0
2018-May-14 20:30N 51°14' E 002°55'0 0.0
2018-May-14 20:00N 51°14' E 002°55'0 0.0
2018-May-14 19:30N 51°14' E 002°55'0 0.0
2018-May-14 19:00N 51°14' E 002°55'0 0.0
2018-May-14 18:30N 51°14' E 002°55'0 0.0
2018-May-14 18:00N 51°14' E 002°55'0 0.0
2018-May-14 17:30N 51°14' E 002°55'0 0.0
2018-May-14 17:00N 51°14' E 002°55'0 0.0
2018-May-14 16:27N 51°14' E 002°55'0 0.0
2018-May-14 16:00N 51°14' E 002°55'0 0.0
2018-May-14 15:30N 51°14' E 002°55'0 0.0
2018-May-14 15:00N 51°14' E 002°55'0 0.0
2018-May-14 14:30N 51°14' E 002°55'0 0.0
2018-May-14 14:00N 51°14' E 002°55'0 0.0
2018-May-14 13:30N 51°14' E 002°55'0 0.0
2018-May-14 12:57N 51°14' E 002°55'0 0.0
2018-May-14 12:30N 51°14' E 002°55'0 0.0
2018-May-14 12:00N 51°14' E 002°55'0 0.0
2018-May-14 11:30N 51°14' E 002°55'0 0.0
2018-May-14 11:00N 51°14' E 002°55'0 0.0
2018-May-14 10:30N 51°14' E 002°55'0 0.0
2018-May-14 10:00N 51°14' E 002°55'0 0.0
2018-May-14 09:30N 51°14' E 002°55'0 0.0
2018-May-14 09:00N 51°14' E 002°55'0 0.0
2018-May-14 08:30N 51°14' E 002°55'0 0.0
2018-May-14 08:00N 51°14' E 002°55'0 0.0
2018-May-14 07:30N 51°14' E 002°55'0 0.0
2018-May-14 07:00N 51°14' E 002°55'0 0.0
2018-May-14 06:30N 51°14' E 002°55'0 0.0
2018-May-14 06:00N 51°14' E 002°55'0 0.0
2018-May-14 05:30N 51°14' E 002°55'0 0.0
2018-May-14 05:00N 51°14' E 002°55'0 0.0
2018-May-14 04:30N 51°14' E 002°55'0 0.0
2018-May-14 04:00N 51°14' E 002°55'0 0.0
2018-May-14 03:30N 51°14' E 002°55'0 0.0
2018-May-14 03:00N 51°14' E 002°55'0 0.0
2018-May-14 02:30N 51°14' E 002°55'0 0.0
2018-May-14 02:00N 51°14' E 002°55'0 0.0
2018-May-14 01:30N 51°14' E 002°55'0 0.0
2018-May-14 01:00N 51°14' E 002°55'0 0.0
2018-May-14 00:30N 51°14' E 002°55'0 0.0
2018-May-14 00:00N 51°14' E 002°55'0 0.0
2018-May-13 23:30N 51°14' E 002°55'0 0.0
2018-May-13 22:54N 51°14' E 002°55'0 0.0
2018-May-13 22:30N 51°14' E 002°55'0 0.0
2018-May-13 22:00N 51°14' E 002°55'0 0.0
2018-May-13 21:30N 51°14' E 002°55'0 0.0
2018-May-13 21:00N 51°14' E 002°55'0 0.0
2018-May-13 20:30N 51°14' E 002°55'0 0.0
2018-May-13 20:00N 51°14' E 002°55'0 0.0
2018-May-13 19:30N 51°14' E 002°55'0 0.0
2018-May-13 19:00N 51°14' E 002°55'0 0.0
2018-May-13 18:30N 51°14' E 002°55'0 0.0
2018-May-13 18:00N 51°14' E 002°55'0 0.0
2018-May-13 17:30N 51°14' E 002°55'0 0.0
2018-May-13 17:00N 51°14' E 002°55'0 0.0
2018-May-13 16:30N 51°14' E 002°55'0 0.0
2018-May-13 16:00N 51°14' E 002°55'0 0.0
2018-May-13 15:30N 51°14' E 002°55'0 0.0
2018-May-13 15:00N 51°14' E 002°55'0 0.0
2018-May-13 14:30N 51°14' E 002°55'0 0.0
2018-May-13 14:00N 51°14' E 002°55'0 0.0
2018-May-13 13:30N 51°14' E 002°55'0 0.0
2018-May-13 13:00N 51°14' E 002°55'0 0.0
2018-May-13 12:30N 51°14' E 002°55'0 0.0
2018-May-13 12:00N 51°14' E 002°55'0 0.0
2018-May-13 11:30N 51°14' E 002°55'0 0.0
2018-May-13 11:00N 51°14' E 002°55'0 0.0
2018-May-13 10:30N 51°14' E 002°55'0 0.0
2018-May-13 09:57N 51°14' E 002°55'0 0.0
2018-May-13 09:30N 51°14' E 002°55'0 0.0
2018-May-13 09:00N 51°14' E 002°55'  

Dump ship's entire track history